createdAt,value
2018-03-16T00:00:31.485Z,5.40
2018-03-16T00:01:34.005Z,5.40
2018-03-16T00:02:36.525Z,5.40
2018-03-16T00:03:39.858Z,5.40
2018-03-16T00:04:42.394Z,5.40
2018-03-16T00:05:44.919Z,5.40
2018-03-16T00:06:47.469Z,5.40
2018-03-16T00:07:49.994Z,5.30
2018-03-16T00:08:52.556Z,5.30
2018-03-16T00:09:55.077Z,5.30
2018-03-16T00:10:57.601Z,5.20
2018-03-16T00:12:00.156Z,5.30
2018-03-16T00:13:03.444Z,5.20
2018-03-16T00:14:05.962Z,5.20
2018-03-16T00:15:08.488Z,5.10
2018-03-16T00:16:11.042Z,5.10
2018-03-16T00:17:13.575Z,5.10
2018-03-16T00:18:16.093Z,5.10
2018-03-16T00:19:18.643Z,5.10
2018-03-16T00:20:21.212Z,5.00
2018-03-16T00:21:23.744Z,5.10
2018-03-16T00:22:38.795Z,5.10
2018-03-16T00:23:41.327Z,5.10
2018-03-16T00:24:43.881Z,5.20
2018-03-16T00:25:46.454Z,5.20
2018-03-16T00:26:48.977Z,5.30
2018-03-16T00:27:52.275Z,5.20
2018-03-16T00:28:55.572Z,5.20
2018-03-16T00:29:58.142Z,5.20
2018-03-16T00:31:00.694Z,5.10
2018-03-16T00:32:03.977Z,5.00
2018-03-16T00:33:07.275Z,5.00
2018-03-16T00:34:09.896Z,5.00
2018-03-16T00:35:12.477Z,5.00
2018-03-16T00:36:15.001Z,5.00
2018-03-16T00:37:17.549Z,5.00
2018-03-16T00:38:20.069Z,5.00
2018-03-16T00:39:22.585Z,5.10
2018-03-16T00:40:25.138Z,5.10
2018-03-16T00:41:27.661Z,5.10
2018-03-16T00:42:30.177Z,5.10
2018-03-16T00:43:32.893Z,5.10
2018-03-16T00:44:35.471Z,5.10
2018-03-16T00:45:38.027Z,5.10
2018-03-16T00:46:40.554Z,5.00
2018-03-16T00:47:43.076Z,5.00
2018-03-16T00:48:45.599Z,5.00
2018-03-16T00:49:48.152Z,5.00
2018-03-16T00:50:50.679Z,5.00
2018-03-16T00:51:53.970Z,5.00
2018-03-16T00:52:57.288Z,5.00
2018-03-16T00:53:59.821Z,5.00
2018-03-16T00:55:03.150Z,5.00
2018-03-16T00:56:05.669Z,5.00
2018-03-16T00:57:08.962Z,5.10
2018-03-16T00:58:12.242Z,5.10
2018-03-16T00:59:14.795Z,5.10
2018-03-16T01:00:18.139Z,5.10
2018-03-16T01:01:20.703Z,5.10
2018-03-16T01:02:23.231Z,5.10
2018-03-16T01:03:26.520Z,5.00
2018-03-16T01:04:29.040Z,5.00
2018-03-16T01:05:31.563Z,5.00
2018-03-16T01:06:34.134Z,5.10
2018-03-16T01:07:36.654Z,5.00
2018-03-16T01:08:39.215Z,5.10
2018-03-16T01:09:41.744Z,5.10
2018-03-16T01:10:44.268Z,5.10
2018-03-16T01:11:47.688Z,5.10
2018-03-16T01:12:50.220Z,5.10
2018-03-16T01:13:53.521Z,5.10
2018-03-16T01:14:56.042Z,5.10
2018-03-16T01:15:58.587Z,5.10
2018-03-16T01:17:01.104Z,5.10
2018-03-16T01:18:04.403Z,5.10
2018-03-16T01:19:06.931Z,5.10
2018-03-16T01:20:09.457Z,5.10
2018-03-16T01:21:12.017Z,5.00
2018-03-16T01:22:14.725Z,5.00
2018-03-16T01:23:17.285Z,5.00
2018-03-16T01:24:19.810Z,5.00
2018-03-16T01:25:22.329Z,5.00
2018-03-16T01:26:24.857Z,5.00
2018-03-16T01:27:27.396Z,5.00
2018-03-16T01:28:29.948Z,5.00
2018-03-16T01:29:33.246Z,4.90
2018-03-16T01:30:35.774Z,4.90
2018-03-16T01:31:38.304Z,5.00
2018-03-16T01:32:40.839Z,5.00
2018-03-16T01:33:44.169Z,5.10
2018-03-16T01:34:46.697Z,5.10
2018-03-16T01:35:49.227Z,5.10
2018-03-16T01:36:51.764Z,5.10
2018-03-16T01:37:54.289Z,5.00
2018-03-16T01:38:57.604Z,5.10
2018-03-16T01:40:00.126Z,5.00
2018-03-16T01:41:03.418Z,5.10
2018-03-16T01:42:06.729Z,5.10
2018-03-16T01:43:09.290Z,5.00
2018-03-16T01:44:11.861Z,5.00
2018-03-16T01:45:14.392Z,5.10
2018-03-16T01:46:17.678Z,5.10
2018-03-16T01:47:20.965Z,5.10
2018-03-16T01:48:23.527Z,5.10
2018-03-16T01:49:26.858Z,5.10
2018-03-16T01:50:29.399Z,5.10
2018-03-16T01:51:31.931Z,5.10
2018-03-16T01:52:34.470Z,5.00
2018-03-16T01:53:36.985Z,5.00
2018-03-16T01:54:40.301Z,5.10
2018-03-16T01:55:42.833Z,5.10
2018-03-16T01:56:46.168Z,5.10
2018-03-16T01:57:48.684Z,5.10
2018-03-16T01:58:51.976Z,5.10
2018-03-16T01:59:55.258Z,5.10
2018-03-16T02:00:58.561Z,5.10
2018-03-16T02:02:01.116Z,5.10
2018-03-16T02:03:03.637Z,5.10
2018-03-16T02:04:06.161Z,5.10
2018-03-16T02:05:08.691Z,5.10
2018-03-16T02:06:12.009Z,5.10
2018-03-16T02:07:14.525Z,5.10
2018-03-16T02:08:17.066Z,5.10
2018-03-16T02:09:19.620Z,5.10
2018-03-16T02:10:22.134Z,5.20
2018-03-16T02:11:24.648Z,5.20
2018-03-16T02:12:27.178Z,5.20
2018-03-16T02:13:30.483Z,5.20
2018-03-16T02:14:33.039Z,5.20
2018-03-16T02:15:35.580Z,5.20
2018-03-16T02:16:38.106Z,5.20
2018-03-16T02:17:40.626Z,5.20
2018-03-16T02:18:43.962Z,5.20
2018-03-16T02:19:46.484Z,5.20
2018-03-16T02:20:49.768Z,5.10
2018-03-16T02:21:53.066Z,5.10
2018-03-16T02:22:55.585Z,5.10
2018-03-16T02:23:58.149Z,5.10
2018-03-16T02:25:00.660Z,5.10
2018-03-16T02:26:03.185Z,5.10
2018-03-16T02:27:05.713Z,5.10
2018-03-16T02:28:08.265Z,5.10
2018-03-16T02:29:10.812Z,5.10
2018-03-16T02:30:14.122Z,5.10
2018-03-16T02:31:16.704Z,5.10
2018-03-16T02:32:19.244Z,5.10
2018-03-16T02:33:21.803Z,5.10
2018-03-16T02:34:24.367Z,5.10
2018-03-16T02:35:27.653Z,5.10
2018-03-16T02:36:30.173Z,5.10
2018-03-16T02:37:32.702Z,5.20
2018-03-16T02:38:35.225Z,5.20
2018-03-16T02:39:38.550Z,5.10
2018-03-16T02:40:41.078Z,5.10
2018-03-16T02:41:44.378Z,5.10
2018-03-16T02:42:46.921Z,5.10
2018-03-16T02:43:49.497Z,5.10
2018-03-16T02:44:52.801Z,5.00
2018-03-16T02:45:55.328Z,5.00
2018-03-16T02:46:57.849Z,5.00
2018-03-16T02:48:00.372Z,5.00
2018-03-16T02:49:03.702Z,5.00
2018-03-16T02:50:06.225Z,5.00
2018-03-16T02:51:08.747Z,4.90
2018-03-16T02:52:11.280Z,4.90
2018-03-16T02:53:13.814Z,4.90
2018-03-16T02:54:16.366Z,4.90
2018-03-16T02:55:18.929Z,4.90
2018-03-16T02:56:21.585Z,4.90
2018-03-16T02:57:24.876Z,5.00
2018-03-16T02:58:27.402Z,5.00
2018-03-16T02:59:29.921Z,5.10
2018-03-16T03:00:32.450Z,5.10
2018-03-16T03:01:35.013Z,5.00
2018-03-16T03:02:37.533Z,5.00
2018-03-16T03:03:40.062Z,5.10
2018-03-16T03:04:42.592Z,5.10
2018-03-16T03:05:45.895Z,5.10
2018-03-16T03:06:48.475Z,5.10
2018-03-16T03:07:51.012Z,5.00
2018-03-16T03:08:54.297Z,5.00
2018-03-16T03:09:56.826Z,5.00
2018-03-16T03:10:59.361Z,5.00
2018-03-16T03:12:01.930Z,5.00
2018-03-16T03:13:04.446Z,5.00
2018-03-16T03:14:07.732Z,5.00
2018-03-16T03:15:11.018Z,5.00
2018-03-16T03:16:14.308Z,5.10
2018-03-16T03:17:17.629Z,5.00
2018-03-16T03:18:20.146Z,5.00
2018-03-16T03:19:23.433Z,5.00
2018-03-16T03:20:26.721Z,5.00
2018-03-16T03:21:30.026Z,5.10
2018-03-16T03:22:32.588Z,5.10
2018-03-16T03:23:35.120Z,5.10
2018-03-16T03:24:38.416Z,5.10
2018-03-16T03:25:41.705Z,5.10
2018-03-16T03:26:44.992Z,5.10
2018-03-16T03:27:48.305Z,5.10
2018-03-16T03:28:50.863Z,5.00
2018-03-16T03:29:53.383Z,5.00
2018-03-16T03:30:55.903Z,5.10
2018-03-16T03:31:58.429Z,5.10
2018-03-16T03:33:01.756Z,5.00
2018-03-16T03:34:04.275Z,5.00
2018-03-16T03:35:07.574Z,4.90
2018-03-16T03:36:10.862Z,4.90
2018-03-16T03:37:14.181Z,4.90
2018-03-16T03:38:16.702Z,4.90
2018-03-16T03:39:20.003Z,4.90
2018-03-16T03:40:22.564Z,4.90
2018-03-16T03:41:25.090Z,4.90
2018-03-16T03:42:27.609Z,4.80
2018-03-16T03:43:30.130Z,4.80
2018-03-16T03:44:32.666Z,4.70
2018-03-16T03:45:35.249Z,4.70
2018-03-16T03:46:37.778Z,4.80
2018-03-16T03:47:40.312Z,4.80
2018-03-16T03:48:43.643Z,4.90
2018-03-16T03:49:46.194Z,4.90
2018-03-16T03:50:48.940Z,4.90
2018-03-16T03:51:52.257Z,4.90
2018-03-16T03:52:54.785Z,4.90
2018-03-16T03:53:58.073Z,4.90
2018-03-16T03:55:01.392Z,4.70
2018-03-16T03:56:03.906Z,4.70
2018-03-16T03:57:06.431Z,4.80
2018-03-16T03:58:08.962Z,4.70
2018-03-16T03:59:12.249Z,4.70
2018-03-16T04:00:14.816Z,4.70
2018-03-16T04:01:17.335Z,4.70
2018-03-16T04:02:19.861Z,4.70
2018-03-16T04:03:22.386Z,4.70
2018-03-16T04:04:25.039Z,4.70
2018-03-16T04:05:27.610Z,4.60
2018-03-16T04:06:30.141Z,4.60
2018-03-16T04:07:32.674Z,4.50
2018-03-16T04:08:35.957Z,4.60
2018-03-16T04:09:39.249Z,4.50
2018-03-16T04:10:41.809Z,4.50
2018-03-16T04:11:45.129Z,4.50
2018-03-16T04:12:47.649Z,4.50
2018-03-16T04:13:50.978Z,4.40
2018-03-16T04:14:53.502Z,4.40
2018-03-16T04:15:56.806Z,4.40
2018-03-16T04:16:59.331Z,4.40
2018-03-16T04:18:01.857Z,4.40
2018-03-16T04:19:04.418Z,4.40
2018-03-16T04:20:06.980Z,4.50
2018-03-16T04:21:09.506Z,4.50
2018-03-16T04:22:12.031Z,4.50
2018-03-16T04:23:14.555Z,4.50
2018-03-16T04:24:17.849Z,4.50
2018-03-16T04:25:20.407Z,4.40
2018-03-16T04:26:23.707Z,4.50
2018-03-16T04:27:26.238Z,4.50
2018-03-16T04:28:28.871Z,4.50
2018-03-16T04:29:31.431Z,4.50
2018-03-16T04:30:33.974Z,4.60
2018-03-16T04:31:36.491Z,4.60
2018-03-16T04:32:39.060Z,4.60
2018-03-16T04:33:41.576Z,4.60
2018-03-16T04:34:44.106Z,4.60
2018-03-16T04:35:47.410Z,4.40
2018-03-16T04:36:50.694Z,4.40
2018-03-16T04:37:54.051Z,4.40
2018-03-16T04:38:56.580Z,4.40
2018-03-16T04:39:59.106Z,4.40
2018-03-16T04:41:02.422Z,4.40
2018-03-16T04:42:04.944Z,4.40
2018-03-16T04:43:08.243Z,4.30
2018-03-16T04:44:11.535Z,4.30
2018-03-16T04:45:14.088Z,4.30
2018-03-16T04:46:17.386Z,4.40
2018-03-16T04:47:19.913Z,4.40
2018-03-16T04:48:22.445Z,4.30
2018-03-16T04:49:24.968Z,4.40
2018-03-16T04:50:28.453Z,4.40
2018-03-16T04:51:31.184Z,4.40
2018-03-16T04:52:33.694Z,4.50
2018-03-16T04:53:36.982Z,4.40
2018-03-16T04:54:40.262Z,4.30
2018-03-16T04:55:43.582Z,4.20
2018-03-16T04:56:46.098Z,4.20
2018-03-16T04:57:49.386Z,4.30
2018-03-16T04:58:52.675Z,4.20
2018-03-16T04:59:55.961Z,4.20
2018-03-16T05:00:59.285Z,4.30
2018-03-16T05:02:01.918Z,4.30
2018-03-16T05:03:05.208Z,4.30
2018-03-16T05:04:07.764Z,4.30
2018-03-16T05:05:11.059Z,4.30
2018-03-16T05:06:14.349Z,4.40
2018-03-16T05:07:16.873Z,4.30
2018-03-16T05:08:19.395Z,4.30
2018-03-16T05:09:21.958Z,4.40
2018-03-16T05:10:24.488Z,4.40
2018-03-16T05:11:27.778Z,4.40
2018-03-16T05:12:31.176Z,4.50
2018-03-16T05:13:33.758Z,4.50
2018-03-16T05:14:36.286Z,4.50
2018-03-16T05:15:38.873Z,4.60
2018-03-16T05:16:41.382Z,4.60
2018-03-16T05:17:44.671Z,4.50
2018-03-16T05:18:47.241Z,4.60
2018-03-16T05:19:49.782Z,4.50
2018-03-16T05:20:52.301Z,4.60
2018-03-16T05:21:54.830Z,4.50
2018-03-16T05:22:57.361Z,4.50
2018-03-16T05:23:59.930Z,4.50
2018-03-16T05:25:02.454Z,4.50
2018-03-16T05:26:04.978Z,4.40
2018-03-16T05:27:07.508Z,4.30
2018-03-16T05:28:10.805Z,4.40
2018-03-16T05:29:14.132Z,4.40
2018-03-16T05:30:16.657Z,4.40
2018-03-16T05:31:19.176Z,4.40
2018-03-16T05:32:21.692Z,4.40
2018-03-16T05:33:24.211Z,4.40
2018-03-16T05:34:26.764Z,4.50
2018-03-16T05:35:29.301Z,4.50
2018-03-16T05:36:32.001Z,4.50
2018-03-16T05:37:34.517Z,4.60
2018-03-16T05:38:37.815Z,4.60
2018-03-16T05:39:40.346Z,4.60
2018-03-16T05:40:42.903Z,4.60
2018-03-16T05:41:45.457Z,4.60
2018-03-16T05:42:47.985Z,4.50
2018-03-16T05:43:50.519Z,4.40
2018-03-16T05:44:53.809Z,4.30
2018-03-16T05:45:57.130Z,4.40
2018-03-16T05:46:59.693Z,4.40
2018-03-16T05:48:02.241Z,4.40
2018-03-16T05:49:04.760Z,4.40
2018-03-16T05:50:07.300Z,4.40
2018-03-16T05:51:09.822Z,4.40
2018-03-16T05:52:13.141Z,4.30
2018-03-16T05:53:15.669Z,4.30
2018-03-16T05:54:18.952Z,4.40
2018-03-16T05:55:22.237Z,4.40
2018-03-16T05:56:25.553Z,4.40
2018-03-16T05:57:28.112Z,4.40
2018-03-16T05:58:30.677Z,4.40
2018-03-16T05:59:33.195Z,4.30
2018-03-16T06:00:35.749Z,4.30
2018-03-16T06:01:38.282Z,4.30
2018-03-16T06:02:40.840Z,4.30
2018-03-16T06:03:43.369Z,4.40
2018-03-16T06:04:45.898Z,4.40
2018-03-16T06:05:48.409Z,4.40
2018-03-16T06:06:50.933Z,4.40
2018-03-16T06:07:53.481Z,4.40
2018-03-16T06:08:55.998Z,4.20
2018-03-16T06:09:58.525Z,4.20
2018-03-16T06:11:01.044Z,4.30
2018-03-16T06:12:03.585Z,4.30
2018-03-16T06:13:06.139Z,4.20
2018-03-16T06:14:08.662Z,4.20
2018-03-16T06:15:11.193Z,4.20
2018-03-16T06:16:13.718Z,4.30
2018-03-16T06:17:16.273Z,4.30
2018-03-16T06:18:18.829Z,4.30
2018-03-16T06:19:21.385Z,4.40
2018-03-16T06:20:24.706Z,4.30
2018-03-16T06:21:27.236Z,4.30
2018-03-16T06:22:30.525Z,4.40
2018-03-16T06:23:33.105Z,4.40
2018-03-16T06:24:35.634Z,4.30
2018-03-16T06:25:38.204Z,4.40
2018-03-16T06:26:40.739Z,4.40
2018-03-16T06:27:43.260Z,4.40
2018-03-16T06:28:45.782Z,4.40
2018-03-16T06:29:48.335Z,4.40
2018-03-16T06:30:50.862Z,4.30
2018-03-16T06:31:53.430Z,4.30
2018-03-16T06:32:55.992Z,4.30
2018-03-16T06:33:58.509Z,4.30
2018-03-16T06:35:01.038Z,4.30
2018-03-16T06:36:03.553Z,4.30
2018-03-16T06:37:06.112Z,4.30
2018-03-16T06:38:08.628Z,4.40
2018-03-16T06:39:11.148Z,4.30
2018-03-16T06:40:14.482Z,4.30
2018-03-16T06:41:17.005Z,4.30
2018-03-16T06:42:19.528Z,4.30
2018-03-16T06:43:22.045Z,4.30
2018-03-16T06:44:24.603Z,4.20
2018-03-16T06:45:27.137Z,4.20
2018-03-16T06:46:29.699Z,4.20
2018-03-16T06:47:32.221Z,4.20
2018-03-16T06:48:35.562Z,4.00
2018-03-16T06:49:38.081Z,4.00
2018-03-16T06:50:40.607Z,4.10
2018-03-16T06:51:43.156Z,4.10
2018-03-16T06:52:45.674Z,4.10
2018-03-16T06:53:48.954Z,4.10
2018-03-16T06:54:52.235Z,4.00
2018-03-16T06:55:55.558Z,3.90
2018-03-16T06:56:58.114Z,3.90
2018-03-16T06:58:00.629Z,4.00
2018-03-16T06:59:03.157Z,4.00
2018-03-16T07:00:05.678Z,4.00
2018-03-16T07:01:08.198Z,3.90
2018-03-16T07:02:10.762Z,3.90
2018-03-16T07:03:13.288Z,3.90
2018-03-16T07:04:15.817Z,3.90
2018-03-16T07:05:18.352Z,3.90
2018-03-16T07:06:21.712Z,3.90
2018-03-16T07:07:24.286Z,4.00
2018-03-16T07:08:26.811Z,4.00
2018-03-16T07:09:29.331Z,3.80
2018-03-16T07:10:31.854Z,3.80
2018-03-16T07:11:34.412Z,3.80
2018-03-16T07:12:36.992Z,3.70
2018-03-16T07:13:40.312Z,3.80
2018-03-16T07:14:42.840Z,3.80
2018-03-16T07:15:45.360Z,3.80
2018-03-16T07:16:47.937Z,3.80
2018-03-16T07:17:50.498Z,3.80
2018-03-16T07:18:53.015Z,3.80
2018-03-16T07:19:56.334Z,3.80
2018-03-16T07:20:58.861Z,3.80
2018-03-16T07:22:02.152Z,3.80
2018-03-16T07:23:05.486Z,3.70
2018-03-16T07:24:08.009Z,3.70
2018-03-16T07:25:10.546Z,3.70
2018-03-16T07:26:13.067Z,3.70
2018-03-16T07:27:15.590Z,3.80
2018-03-16T07:28:18.918Z,3.70
2018-03-16T07:29:21.439Z,3.70
2018-03-16T07:30:24.716Z,3.70
2018-03-16T07:31:28.010Z,3.70
2018-03-16T07:32:31.335Z,3.80
2018-03-16T07:33:34.621Z,3.70
2018-03-16T07:34:37.609Z,3.70
2018-03-16T07:35:40.134Z,3.70
2018-03-16T07:36:43.458Z,3.50
2018-03-16T07:37:45.985Z,3.50
2018-03-16T07:38:49.277Z,3.50
2018-03-16T07:39:51.834Z,3.50
2018-03-16T07:40:55.121Z,3.50
2018-03-16T07:41:58.523Z,3.40
2018-03-16T07:43:01.048Z,3.40
2018-03-16T07:44:03.601Z,3.40
2018-03-16T07:45:06.117Z,3.50
2018-03-16T07:46:14.429Z,3.50
2018-03-16T07:47:16.954Z,3.50
2018-03-16T07:48:20.265Z,3.60
2018-03-16T07:49:22.845Z,3.60
2018-03-16T07:50:25.395Z,3.60
2018-03-16T07:51:27.938Z,3.70
2018-03-16T07:52:31.229Z,3.60
2018-03-16T07:53:34.541Z,3.60
2018-03-16T07:54:37.362Z,3.60
2018-03-16T07:55:40.089Z,3.60
2018-03-16T07:56:42.604Z,3.60
2018-03-16T07:57:45.120Z,3.60
2018-03-16T07:58:47.673Z,3.60
2018-03-16T07:59:50.252Z,3.70
2018-03-16T08:00:52.776Z,3.60
2018-03-16T08:01:55.302Z,3.60
2018-03-16T08:02:57.829Z,3.60
2018-03-16T08:04:00.359Z,3.60
2018-03-16T08:05:02.918Z,3.60
2018-03-16T08:06:05.474Z,3.50
2018-03-16T08:07:07.998Z,3.50
2018-03-16T08:08:10.526Z,3.60
2018-03-16T08:09:13.050Z,3.50
2018-03-16T08:10:15.612Z,3.60
2018-03-16T08:11:18.130Z,3.60
2018-03-16T08:12:20.703Z,3.60
2018-03-16T08:13:23.219Z,3.60
2018-03-16T08:14:25.748Z,3.60
2018-03-16T08:15:29.037Z,3.70
2018-03-16T08:16:32.327Z,3.70
2018-03-16T08:17:34.890Z,3.70
2018-03-16T08:18:38.181Z,3.60
2018-03-16T08:19:40.702Z,3.60
2018-03-16T08:20:43.226Z,3.50
2018-03-16T08:21:45.751Z,3.30
2018-03-16T08:22:48.332Z,3.30
2018-03-16T08:23:50.860Z,3.30
2018-03-16T08:24:53.373Z,3.40
2018-03-16T08:25:55.901Z,3.40
2018-03-16T08:26:58.421Z,3.40
2018-03-16T08:28:00.998Z,3.20
2018-03-16T08:29:03.526Z,3.10
2018-03-16T08:30:06.808Z,3.10
2018-03-16T08:31:09.387Z,3.10
2018-03-16T08:32:12.669Z,3.10
2018-03-16T08:33:15.961Z,3.10
2018-03-16T08:34:18.492Z,3.10
2018-03-16T08:35:21.061Z,3.10
2018-03-16T08:36:23.585Z,3.10
2018-03-16T08:37:26.112Z,3.00
2018-03-16T08:38:30.042Z,3.10
2018-03-16T08:39:32.556Z,3.10
2018-03-16T08:40:35.098Z,3.10
2018-03-16T08:41:37.621Z,3.10
2018-03-16T08:42:40.260Z,3.10
2018-03-16T08:43:42.980Z,3.00
2018-03-16T08:44:45.497Z,3.00
2018-03-16T08:45:48.016Z,3.00
2018-03-16T08:46:50.544Z,3.10
2018-03-16T08:47:53.888Z,2.90
2018-03-16T08:48:56.409Z,2.80
2018-03-16T08:49:58.934Z,2.80
2018-03-16T08:51:01.457Z,2.90
2018-03-16T08:52:03.975Z,2.80
2018-03-16T08:53:06.538Z,2.90
2018-03-16T08:54:09.093Z,2.90
2018-03-16T08:55:11.616Z,2.80
2018-03-16T08:56:14.169Z,2.80
2018-03-16T08:57:17.450Z,2.70
2018-03-16T08:58:20.010Z,2.70
2018-03-16T08:59:22.538Z,2.70
2018-03-16T09:00:25.097Z,2.70
2018-03-16T09:01:27.614Z,2.60
2018-03-16T09:02:30.147Z,2.60
2018-03-16T09:03:32.665Z,2.60
2018-03-16T09:04:35.221Z,2.70
2018-03-16T09:05:37.783Z,2.70
2018-03-16T09:06:40.302Z,2.70
2018-03-16T09:07:42.835Z,2.70
2018-03-16T09:08:45.349Z,2.70
2018-03-16T09:09:47.905Z,2.70
2018-03-16T09:10:50.418Z,2.60
2018-03-16T09:11:52.972Z,2.60
2018-03-16T09:12:55.500Z,2.60
2018-03-16T09:13:58.013Z,2.50
2018-03-16T09:15:00.571Z,2.40
2018-03-16T09:16:03.886Z,2.60
2018-03-16T09:17:06.418Z,2.50
2018-03-16T09:18:09.727Z,2.50
2018-03-16T09:19:12.291Z,2.50
2018-03-16T09:20:14.812Z,2.40
2018-03-16T09:21:17.373Z,2.40
2018-03-16T09:22:19.890Z,2.60
2018-03-16T09:23:23.193Z,2.50
2018-03-16T09:24:25.789Z,2.50
2018-03-16T09:25:28.351Z,2.50
2018-03-16T09:26:30.881Z,2.50
2018-03-16T09:27:33.401Z,2.50
2018-03-16T09:28:35.925Z,2.40
2018-03-16T09:29:38.496Z,2.40
2018-03-16T09:30:41.014Z,2.40
2018-03-16T09:31:43.525Z,2.40
2018-03-16T09:32:46.046Z,2.30
2018-03-16T09:33:49.345Z,2.40
2018-03-16T09:34:51.951Z,2.40
2018-03-16T09:35:54.465Z,2.50
2018-03-16T09:36:57.036Z,2.50
2018-03-16T09:37:59.558Z,2.50
2018-03-16T09:39:02.078Z,2.60
2018-03-16T09:40:04.612Z,2.50
2018-03-16T09:41:07.898Z,2.70
2018-03-16T09:42:11.245Z,2.80
2018-03-16T09:43:13.770Z,2.80
2018-03-16T09:44:16.300Z,2.90
2018-03-16T09:45:18.830Z,3.00
2018-03-16T09:46:21.353Z,3.10
2018-03-16T09:47:24.676Z,3.00
2018-03-16T09:48:27.189Z,3.00
2018-03-16T09:49:29.719Z,3.00
2018-03-16T09:50:32.242Z,3.10
2018-03-16T09:51:35.532Z,3.20
2018-03-16T09:52:38.096Z,3.20
2018-03-16T09:53:41.381Z,3.20
2018-03-16T09:54:56.576Z,3.30
2018-03-16T09:55:59.096Z,3.30
2018-03-16T09:57:02.459Z,3.20
2018-03-16T09:58:04.953Z,3.20
2018-03-16T09:59:08.249Z,3.20
2018-03-16T10:00:10.768Z,3.20
2018-03-16T10:01:13.290Z,3.20
2018-03-16T10:02:15.837Z,3.20
2018-03-16T10:03:19.129Z,3.10
2018-03-16T10:04:21.652Z,3.10
2018-03-16T10:05:24.178Z,3.20
2018-03-16T10:06:26.705Z,3.20
2018-03-16T10:07:30.042Z,3.20
2018-03-16T10:08:32.593Z,3.20
2018-03-16T10:09:35.157Z,3.20
2018-03-16T10:10:37.677Z,3.20
2018-03-16T10:11:40.202Z,3.20
2018-03-16T10:12:42.716Z,3.20
2018-03-16T10:13:45.236Z,3.20
2018-03-16T10:14:47.795Z,3.20
2018-03-16T10:15:50.334Z,3.20
2018-03-16T10:16:52.857Z,3.30
2018-03-16T10:17:55.407Z,3.20
2018-03-16T10:18:58.688Z,3.20
2018-03-16T10:20:01.217Z,3.20
2018-03-16T10:21:03.749Z,3.10
2018-03-16T10:22:06.271Z,3.20
2018-03-16T10:23:08.819Z,3.20
2018-03-16T10:24:12.109Z,3.20
2018-03-16T10:25:14.662Z,3.20
2018-03-16T10:26:17.949Z,3.10
2018-03-16T10:27:21.224Z,3.10
2018-03-16T10:28:24.517Z,3.10
2018-03-16T10:29:27.033Z,3.10
2018-03-16T10:30:29.609Z,3.10
2018-03-16T10:31:32.124Z,3.20
2018-03-16T10:32:34.646Z,3.20
2018-03-16T10:33:37.165Z,3.20
2018-03-16T10:34:39.691Z,3.10
2018-03-16T10:35:42.244Z,3.20
2018-03-16T10:36:44.753Z,3.20
2018-03-16T10:37:47.272Z,3.20
2018-03-16T10:38:49.805Z,3.10
2018-03-16T10:39:52.320Z,3.10
2018-03-16T10:40:54.881Z,3.20
2018-03-16T10:41:57.412Z,3.20
2018-03-16T10:42:59.941Z,3.20
2018-03-16T10:44:02.467Z,3.30
2018-03-16T10:45:04.998Z,3.30
2018-03-16T10:46:07.554Z,3.30
2018-03-16T10:47:10.086Z,3.30
2018-03-16T10:48:13.369Z,3.20
2018-03-16T10:49:16.690Z,3.10
2018-03-16T10:50:19.213Z,3.10
2018-03-16T10:51:21.758Z,3.20
2018-03-16T10:52:24.282Z,3.20
2018-03-16T10:53:26.799Z,3.20
2018-03-16T10:54:29.342Z,3.20
2018-03-16T10:55:31.894Z,3.20
2018-03-16T10:56:34.442Z,3.20
2018-03-16T10:57:36.956Z,3.20
2018-03-16T10:58:39.480Z,3.10
2018-03-16T10:59:42.041Z,3.10
2018-03-16T11:00:50.339Z,3.10
2018-03-16T11:01:55.700Z,3.10
2018-03-16T11:03:03.796Z,2.90
2018-03-16T11:04:11.988Z,3.00
2018-03-16T11:05:18.478Z,3.00
2018-03-16T11:06:26.783Z,3.00
2018-03-16T11:07:44.214Z,3.00
2018-03-16T11:08:47.750Z,3.00
2018-03-16T11:09:50.319Z,3.00
2018-03-16T11:10:52.832Z,3.10
2018-03-16T11:11:55.362Z,3.10
2018-03-16T11:12:57.877Z,3.00
2018-03-16T11:14:01.196Z,3.10
2018-03-16T11:15:03.709Z,3.10
2018-03-16T11:16:06.229Z,3.10
2018-03-16T11:17:08.764Z,3.10
2018-03-16T11:18:12.042Z,3.30
2018-03-16T11:19:15.364Z,3.30
2018-03-16T11:20:17.882Z,3.30
2018-03-16T11:21:20.435Z,3.30
2018-03-16T11:22:22.947Z,3.20
2018-03-16T11:24:34.244Z,3.30
2018-03-16T11:25:36.763Z,3.20
2018-03-16T11:26:40.074Z,3.30
2018-03-16T11:27:42.600Z,3.30
2018-03-16T11:28:45.126Z,3.20
2018-03-16T11:29:47.683Z,3.20
2018-03-16T11:30:50.222Z,3.20
2018-03-16T11:31:52.764Z,3.20
2018-03-16T11:32:55.275Z,3.30
2018-03-16T11:33:57.790Z,3.30
2018-03-16T11:35:00.340Z,3.30
2018-03-16T11:36:02.881Z,3.40
2018-03-16T11:37:05.402Z,3.40
2018-03-16T11:38:07.921Z,3.40
2018-03-16T11:39:10.449Z,3.40
2018-03-16T11:40:12.998Z,3.40
2018-03-16T11:41:15.565Z,3.40
2018-03-16T11:42:18.090Z,3.30
2018-03-16T11:43:20.597Z,3.30
2018-03-16T11:44:23.114Z,3.20
2018-03-16T11:45:25.637Z,3.20
2018-03-16T11:46:28.948Z,3.20
2018-03-16T11:47:31.472Z,3.20
2018-03-16T11:48:34.002Z,3.20
2018-03-16T11:49:36.521Z,3.20
2018-03-16T11:50:39.797Z,3.30
2018-03-16T11:51:43.124Z,3.40
2018-03-16T11:52:45.632Z,3.30
2018-03-16T11:53:48.145Z,3.40
2018-03-16T11:54:50.710Z,3.50
2018-03-16T11:55:53.235Z,3.50
2018-03-16T11:56:55.782Z,3.60
2018-03-16T11:57:58.337Z,3.50
2018-03-16T11:59:00.850Z,3.50
2018-03-16T12:00:04.130Z,3.60
2018-03-16T12:01:06.643Z,3.50
2018-03-16T12:02:09.177Z,3.50
2018-03-16T12:03:12.490Z,3.50
2018-03-16T12:04:15.004Z,3.50
2018-03-16T12:05:17.563Z,3.50
2018-03-16T12:06:20.060Z,3.60
2018-03-16T12:07:23.353Z,3.60
2018-03-16T12:08:25.903Z,3.60
2018-03-16T12:09:29.290Z,3.70
2018-03-16T12:10:32.578Z,3.60
2018-03-16T12:11:35.862Z,3.60
2018-03-16T12:12:39.141Z,3.60
2018-03-16T12:13:42.462Z,3.50
2018-03-16T12:14:44.974Z,3.60
2018-03-16T12:15:47.490Z,3.50
2018-03-16T12:16:50.841Z,3.50
2018-03-16T12:17:53.452Z,3.50
2018-03-16T12:18:55.966Z,3.40
2018-03-16T12:19:59.256Z,3.50
2018-03-16T12:21:02.540Z,3.40
2018-03-16T12:22:05.853Z,3.20
2018-03-16T12:23:08.372Z,3.30
2018-03-16T12:24:10.893Z,3.30
2018-03-16T12:25:13.414Z,3.20
2018-03-16T12:26:16.703Z,3.00
2018-03-16T12:27:20.013Z,3.00
2018-03-16T12:28:22.554Z,3.00
2018-03-16T12:29:25.838Z,3.00
2018-03-16T12:30:29.124Z,3.00
2018-03-16T12:31:32.406Z,3.00
2018-03-16T12:32:34.934Z,3.00
2018-03-16T12:33:37.473Z,3.20
2018-03-16T12:34:40.031Z,3.10
2018-03-16T12:35:42.537Z,3.00
2018-03-16T12:36:45.044Z,3.10
2018-03-16T12:37:48.349Z,2.90
2018-03-16T12:38:50.876Z,2.90
2018-03-16T12:39:54.167Z,2.90
2018-03-16T12:40:57.445Z,2.80
2018-03-16T12:42:00.726Z,2.80
2018-03-16T12:43:03.264Z,2.80
2018-03-16T12:44:05.779Z,2.90
2018-03-16T12:45:09.063Z,2.80
2018-03-16T12:46:11.573Z,2.80
2018-03-16T12:47:14.085Z,2.80
2018-03-16T12:48:17.389Z,2.60
2018-03-16T12:49:19.910Z,2.60
2018-03-16T12:50:22.445Z,2.70
2018-03-16T12:51:24.992Z,2.60
2018-03-16T12:52:28.188Z,2.70
2018-03-16T12:53:30.774Z,2.60
2018-03-16T12:54:33.265Z,2.60
2018-03-16T12:55:35.780Z,2.50
2018-03-16T12:56:38.316Z,2.50
2018-03-16T12:57:41.600Z,2.70
2018-03-16T12:58:44.911Z,2.70
2018-03-16T12:59:47.434Z,2.70
2018-03-16T13:00:50.729Z,2.90
2018-03-16T13:01:54.042Z,2.90
2018-03-16T13:02:56.564Z,2.90
2018-03-16T13:03:59.086Z,2.90
2018-03-16T13:05:01.607Z,3.00
2018-03-16T13:06:04.887Z,3.20
2018-03-16T13:07:08.185Z,3.20
2018-03-16T13:08:10.718Z,3.20
2018-03-16T13:09:13.236Z,3.30
2018-03-16T13:10:15.755Z,3.30
2018-03-16T13:11:18.305Z,3.30
2018-03-16T13:12:20.821Z,3.40
2018-03-16T13:13:23.339Z,3.40
2018-03-16T13:14:25.898Z,3.30
2018-03-16T13:15:28.412Z,3.40
2018-03-16T13:16:31.697Z,3.40
2018-03-16T13:17:34.208Z,3.40
2018-03-16T13:18:36.761Z,3.40
2018-03-16T13:19:39.279Z,3.40
2018-03-16T13:20:42.563Z,3.50
2018-03-16T13:21:45.855Z,3.60
2018-03-16T13:22:49.142Z,3.60
2018-03-16T13:23:52.453Z,3.60
2018-03-16T13:24:55.008Z,3.60
2018-03-16T13:25:57.525Z,3.60
2018-03-16T13:27:00.059Z,3.60
2018-03-16T13:28:02.617Z,3.50
2018-03-16T13:29:05.157Z,3.60
2018-03-16T13:30:08.439Z,3.50
2018-03-16T13:31:11.723Z,3.50
2018-03-16T13:32:15.008Z,3.50
2018-03-16T13:33:18.329Z,3.50
2018-03-16T13:34:20.845Z,3.50
2018-03-16T13:35:23.398Z,3.50
2018-03-16T13:36:25.913Z,3.40
2018-03-16T13:37:28.437Z,3.50
2018-03-16T13:38:30.953Z,3.50
2018-03-16T13:39:33.473Z,3.50
2018-03-16T13:40:36.783Z,3.30
2018-03-16T13:41:39.313Z,3.30
2018-03-16T13:42:41.837Z,3.30
2018-03-16T13:43:44.352Z,3.30
2018-03-16T13:44:46.889Z,3.20
2018-03-16T13:45:49.405Z,3.20
2018-03-16T13:46:52.702Z,3.10
2018-03-16T13:47:55.217Z,3.10
2018-03-16T13:48:57.729Z,3.20
2018-03-16T13:50:00.284Z,3.20
2018-03-16T13:51:03.577Z,3.20
2018-03-16T13:52:06.106Z,3.20
2018-03-16T13:53:08.629Z,3.30
2018-03-16T13:54:11.145Z,3.20
2018-03-16T13:55:13.693Z,3.30
2018-03-16T13:56:16.209Z,3.20
2018-03-16T13:57:18.739Z,3.20